createdAt,value
2019-04-10T00:00:35.128Z,25.08
2019-04-10T00:03:06.168Z,24.52
2019-04-10T00:05:36.199Z,24.32
2019-04-10T00:08:06.306Z,25.57
2019-04-10T00:10:36.219Z,25.37
2019-04-10T00:13:06.668Z,24.77
2019-04-10T00:15:36.385Z,25.40
2019-04-10T00:18:05.911Z,25.00
2019-04-10T00:20:35.146Z,25.60
2019-04-10T00:23:04.378Z,24.95
2019-04-10T00:25:34.977Z,24.82
2019-04-10T00:28:05.313Z,26.02
2019-04-10T00:30:34.073Z,25.68
2019-04-10T00:33:02.876Z,25.37
2019-04-10T00:35:32.217Z,25.50
2019-04-10T00:38:01.711Z,25.90
2019-04-10T00:40:31.163Z,26.00
2019-04-10T00:43:00.266Z,24.98
2019-04-10T00:45:29.333Z,22.77
2019-04-10T00:47:58.237Z,23.57
2019-04-10T00:50:27.077Z,23.95
2019-04-10T00:52:56.671Z,21.87
2019-04-10T00:55:25.847Z,22.58
2019-04-10T00:57:54.822Z,22.93
2019-04-10T01:00:25.469Z,23.07
2019-04-10T01:02:54.405Z,23.12
2019-04-10T01:05:23.180Z,22.47
2019-04-10T01:07:52.027Z,22.67
2019-04-10T01:10:21.983Z,22.05
2019-04-10T01:12:50.784Z,23.60
2019-04-10T01:15:20.438Z,23.42
2019-04-10T01:17:49.264Z,22.85
2019-04-10T01:20:18.076Z,22.67
2019-04-10T01:22:47.684Z,22.58
2019-04-10T01:25:16.604Z,22.30
2019-04-10T01:27:45.379Z,23.05
2019-04-10T01:30:14.327Z,21.52
2019-04-10T01:32:43.951Z,21.45
2019-04-10T01:35:12.809Z,22.45
2019-04-10T01:37:49.529Z,21.97
2019-04-10T01:40:12.946Z,22.58
2019-04-10T01:42:41.817Z,21.80
2019-04-10T01:45:11.339Z,21.82
2019-04-10T01:47:41.410Z,21.77
2019-04-10T01:50:10.560Z,22.35
2019-04-10T01:52:39.435Z,21.52
2019-04-10T01:55:21.133Z,23.45
2019-04-10T01:57:38.968Z,22.60
2019-04-10T02:00:09.481Z,24.90
2019-04-10T02:02:49.600Z,24.10
2019-04-10T02:05:18.770Z,24.43
2019-04-10T02:07:59.410Z,25.03
2019-04-10T02:10:18.488Z,23.92
2019-04-10T02:12:47.319Z,24.57
2019-04-10T02:15:16.353Z,25.23
2019-04-10T02:17:45.096Z,26.02
2019-04-10T02:20:15.153Z,25.23
2019-04-10T02:22:43.958Z,26.68
2019-04-10T02:25:13.814Z,24.72
2019-04-10T02:27:42.702Z,26.07
2019-04-10T02:30:14.655Z,27.00
2019-04-10T02:32:47.325Z,26.97
2019-04-10T02:35:17.168Z,27.05
2019-04-10T02:37:43.976Z,28.17
2019-04-10T02:40:13.169Z,28.92
2019-04-10T02:42:45.012Z,29.57
2019-04-10T02:45:14.887Z,29.27
2019-04-10T02:47:44.988Z,30.37
2019-04-10T02:50:14.344Z,31.97
2019-04-10T02:52:43.526Z,32.23
2019-04-10T02:55:12.342Z,31.93
2019-04-10T02:57:41.516Z,31.57
2019-04-10T03:00:13.111Z,32.00
2019-04-10T03:02:41.901Z,31.67
2019-04-10T03:05:11.282Z,32.38
2019-04-10T03:07:40.458Z,31.73
2019-04-10T03:10:20.345Z,30.80
2019-04-10T03:12:41.263Z,33.90
2019-04-10T03:15:12.281Z,34.15
2019-04-10T03:17:41.972Z,33.65
2019-04-10T03:20:11.049Z,34.70
2019-04-10T03:22:40.909Z,30.92
2019-04-10T03:25:10.918Z,33.38
2019-04-10T03:27:40.694Z,33.83
2019-04-10T03:30:12.710Z,33.25
2019-04-10T03:32:48.050Z,33.80
2019-04-10T03:35:32.702Z,32.28
2019-04-10T03:38:01.614Z,34.50
2019-04-10T03:40:31.361Z,31.20
2019-04-10T03:43:01.391Z,33.73
2019-04-10T03:45:30.779Z,34.48
2019-04-10T03:47:59.974Z,36.50
2019-04-10T03:50:29.910Z,33.65
2019-04-10T03:53:00.076Z,34.67
2019-04-10T03:55:29.244Z,36.83
2019-04-10T03:57:58.701Z,35.30
2019-04-10T04:00:27.867Z,36.68
2019-04-10T04:02:56.668Z,36.93
2019-04-10T04:05:26.599Z,39.95
2019-04-10T04:07:55.468Z,39.70
2019-04-10T04:10:24.608Z,40.47
2019-04-10T04:12:53.472Z,41.10
2019-04-10T04:15:22.325Z,42.15
2019-04-10T04:17:51.057Z,42.03
2019-04-10T04:20:21.061Z,43.20
2019-04-10T04:22:50.073Z,41.53
2019-04-10T04:25:18.837Z,40.23
2019-04-10T04:27:47.688Z,40.90
2019-04-10T04:30:17.012Z,40.48
2019-04-10T04:32:46.151Z,41.23
2019-04-10T04:35:15.389Z,40.58
2019-04-10T04:37:44.341Z,42.08
2019-04-10T04:40:13.227Z,42.13
2019-04-10T04:42:42.717Z,43.00
2019-04-10T04:45:12.751Z,43.15
2019-04-10T04:47:41.603Z,42.97
2019-04-10T04:50:10.631Z,44.03
2019-04-10T04:52:41.246Z,43.02
2019-04-10T04:55:10.121Z,42.10
2019-04-10T04:57:39.656Z,41.70
2019-04-10T05:00:10.748Z,41.92
2019-04-10T05:02:39.512Z,41.33
2019-04-10T05:05:08.778Z,41.63
2019-04-10T05:07:37.684Z,41.37
2019-04-10T05:10:07.735Z,41.15
2019-04-10T05:12:38.185Z,40.05
2019-04-10T05:15:09.421Z,41.90
2019-04-10T05:17:38.035Z,41.13
2019-04-10T05:20:09.158Z,41.67
2019-04-10T05:22:38.074Z,41.15
2019-04-10T05:25:07.029Z,41.02
2019-04-10T05:27:35.766Z,42.85
2019-04-10T05:33:22.512Z,39.40
2019-04-10T05:35:51.342Z,41.23
2019-04-10T05:38:20.882Z,41.40
2019-04-10T05:40:50.710Z,41.70
2019-04-10T05:43:19.955Z,39.10
2019-04-10T05:45:48.863Z,41.92
2019-04-10T05:48:17.596Z,40.00
2019-04-10T05:50:53.956Z,38.87
2019-04-10T05:53:17.073Z,39.27
2019-04-10T05:55:45.920Z,38.42
2019-04-10T05:58:15.454Z,39.13
2019-04-10T06:00:45.042Z,39.30
2019-04-10T06:03:14.483Z,40.28
2019-04-10T06:05:44.292Z,38.25
2019-04-10T06:08:13.999Z,39.27
2019-04-10T06:10:43.640Z,38.63
2019-04-10T06:13:12.996Z,38.70
2019-04-10T06:15:41.911Z,37.23
2019-04-10T06:18:11.102Z,39.05
2019-04-10T06:20:41.770Z,39.03
2019-04-10T06:23:11.543Z,39.08
2019-04-10T06:25:41.944Z,39.03
2019-04-10T06:28:10.877Z,39.33
2019-04-10T06:30:39.854Z,38.53
2019-04-10T06:33:09.590Z,39.67
2019-04-10T06:35:39.615Z,39.88
2019-04-10T06:38:08.703Z,40.03
2019-04-10T06:40:37.712Z,38.78
2019-04-10T06:43:06.625Z,37.80
2019-04-10T06:45:35.817Z,39.70
2019-04-10T06:48:04.845Z,39.33
2019-04-10T06:50:33.608Z,39.50
2019-04-10T06:53:02.358Z,38.93
2019-04-10T06:55:32.160Z,40.10
2019-04-10T06:58:01.168Z,39.27
2019-04-10T07:00:30.677Z,39.67
2019-04-10T07:03:00.897Z,38.90
2019-04-10T07:05:40.273Z,38.05
2019-04-10T07:08:09.156Z,37.60
2019-04-10T07:10:42.590Z,38.50
2019-04-10T07:13:04.318Z,38.00
2019-04-10T07:15:31.721Z,36.90
2019-04-10T07:18:00.976Z,37.45
2019-04-10T07:20:30.210Z,38.48
2019-04-10T07:22:59.590Z,38.28
2019-04-10T07:25:28.429Z,38.55
2019-04-10T07:27:58.286Z,37.93
2019-04-10T07:30:28.023Z,38.60
2019-04-10T07:32:57.130Z,39.03
2019-04-10T07:35:28.247Z,38.73
2019-04-10T07:37:58.029Z,40.35
2019-04-10T07:40:26.949Z,38.37
2019-04-10T07:42:56.646Z,39.25
2019-04-10T07:45:27.112Z,40.28
2019-04-10T07:47:56.185Z,39.65
2019-04-10T07:50:26.018Z,41.75
2019-04-10T07:52:54.953Z,40.85
2019-04-10T07:55:23.926Z,40.25
2019-04-10T07:57:53.224Z,40.87
2019-04-10T08:00:22.273Z,40.28
2019-04-10T08:02:51.771Z,41.08
2019-04-10T08:05:20.959Z,40.38
2019-04-10T08:07:49.805Z,40.52
2019-04-10T08:10:18.721Z,41.55
2019-04-10T08:12:52.149Z,39.73
2019-04-10T08:15:18.926Z,39.80
2019-04-10T08:17:50.479Z,40.38
2019-04-10T08:20:18.693Z,39.70
2019-04-10T08:22:47.429Z,40.25
2019-04-10T08:25:16.335Z,40.50
2019-04-10T08:27:46.008Z,38.60
2019-04-10T08:30:15.451Z,41.30
2019-04-10T08:32:53.366Z,41.77
2019-04-10T08:35:15.465Z,40.78
2019-04-10T08:37:45.290Z,40.78
2019-04-10T08:40:15.681Z,41.77
2019-04-10T08:42:46.114Z,42.13
2019-04-10T08:45:15.305Z,41.85
2019-04-10T08:47:44.221Z,41.60
2019-04-10T08:50:13.889Z,40.48
2019-04-10T08:52:42.789Z,41.37
2019-04-10T08:55:11.690Z,40.35
2019-04-10T08:57:41.652Z,41.23
2019-04-10T09:00:12.163Z,40.15
2019-04-10T09:02:42.232Z,41.50
2019-04-10T09:05:11.893Z,41.37
2019-04-10T09:07:40.748Z,40.43
2019-04-10T09:10:10.259Z,40.75
2019-04-10T09:12:39.112Z,40.12
2019-04-10T09:15:08.215Z,40.73
2019-04-10T09:17:37.702Z,40.30
2019-04-10T09:20:08.808Z,40.37
2019-04-10T09:23:04.415Z,39.80
2019-04-10T09:25:09.135Z,40.30
2019-04-10T09:27:38.111Z,41.42
2019-04-10T09:30:08.824Z,41.00
2019-04-10T09:32:38.878Z,41.30
2019-04-10T09:35:08.882Z,40.23
2019-04-10T09:37:37.973Z,41.50
2019-04-10T09:40:08.872Z,40.73
2019-04-10T09:42:37.782Z,42.30
2019-04-10T09:45:07.277Z,40.83
2019-04-10T09:47:36.046Z,40.43
2019-04-10T09:50:07.722Z,41.25
2019-04-10T09:52:37.535Z,40.33
2019-04-10T09:55:07.525Z,39.55
2019-04-10T09:57:36.713Z,40.33
2019-04-10T10:00:08.030Z,39.98
2019-04-10T10:02:37.868Z,41.20
2019-04-10T10:05:08.503Z,40.40
2019-04-10T10:07:37.394Z,42.20
2019-04-10T10:10:08.712Z,42.30
2019-04-10T10:12:38.610Z,43.78
2019-04-10T10:15:13.882Z,43.70
2019-04-10T10:17:42.708Z,43.17
2019-04-10T10:20:13.291Z,44.03
2019-04-10T10:22:43.446Z,42.17
2019-04-10T10:25:13.144Z,43.48
2019-04-10T10:27:42.673Z,43.58
2019-04-10T10:30:13.373Z,44.00
2019-04-10T10:32:42.659Z,43.28
2019-04-10T10:35:12.549Z,44.03
2019-04-10T10:37:41.280Z,44.83
2019-04-10T10:40:11.648Z,44.35
2019-04-10T10:42:41.514Z,44.83
2019-04-10T10:45:12.324Z,45.08
2019-04-10T10:47:41.265Z,45.55
2019-04-10T10:50:10.113Z,47.23
2019-04-10T10:52:39.779Z,45.17
2019-04-10T10:55:09.638Z,45.52
2019-04-10T10:57:39.575Z,44.98
2019-04-10T11:00:11.934Z,44.63
2019-04-10T11:02:39.658Z,45.17
2019-04-10T11:05:08.858Z,45.10
2019-04-10T11:07:38.850Z,46.40
2019-04-10T11:10:08.543Z,46.97
2019-04-10T11:12:38.411Z,46.05
2019-04-10T11:15:07.851Z,46.30
2019-04-10T11:17:38.221Z,47.15
2019-04-10T11:20:10.305Z,46.48
2019-04-10T11:22:42.361Z,46.90
2019-04-10T11:25:12.239Z,46.37
2019-04-10T11:27:42.018Z,46.70
2019-04-10T11:30:13.197Z,48.68
2019-04-10T11:32:42.359Z,48.50
2019-04-10T11:35:11.417Z,46.17
2019-04-10T11:37:44.867Z,47.88
2019-04-10T11:40:12.379Z,47.20
2019-04-10T11:42:42.912Z,46.55
2019-04-10T11:45:16.168Z,47.15
2019-04-10T11:47:44.916Z,44.73
2019-04-10T11:50:17.287Z,46.15
2019-04-10T11:52:51.311Z,47.70
2019-04-10T11:55:19.798Z,46.08
2019-04-10T11:57:48.623Z,45.17
2019-04-10T12:00:20.393Z,45.80
2019-04-10T12:02:52.401Z,48.02
2019-04-10T12:05:20.251Z,46.68
2019-04-10T12:08:09.568Z,45.75
2019-04-10T12:12:51.470Z,45.80
2019-04-10T12:15:20.856Z,45.30
2019-04-10T12:17:49.834Z,44.58
2019-04-10T12:20:18.835Z,43.48
2019-04-10T12:22:48.286Z,43.20
2019-04-10T12:25:17.409Z,45.10
2019-04-10T12:27:47.330Z,43.75
2019-04-10T12:30:17.401Z,44.63
2019-04-10T12:32:47.442Z,44.05
2019-04-10T12:35:17.225Z,44.30
2019-04-10T12:37:46.061Z,44.98
2019-04-10T12:40:15.040Z,44.42
2019-04-10T12:42:44.134Z,44.88
2019-04-10T12:45:13.658Z,45.83
2019-04-10T12:47:42.393Z,44.50
2019-04-10T12:50:12.144Z,45.85
2019-04-10T12:52:40.973Z,45.00
2019-04-10T12:55:10.214Z,44.35
2019-04-10T12:57:41.361Z,43.53
2019-04-10T13:00:13.845Z,44.48
2019-04-10T13:02:47.019Z,43.73
2019-04-10T13:05:16.750Z,44.60
2019-04-10T13:07:45.670Z,43.28
2019-04-10T13:10:14.968Z,44.23
2019-04-10T13:12:45.169Z,43.90
2019-04-10T13:15:15.077Z,42.43
2019-04-10T13:17:51.006Z,41.43
2019-04-10T13:20:21.877Z,40.45
2019-04-10T13:22:50.934Z,40.63
2019-04-10T13:25:20.304Z,41.30
2019-04-10T13:27:49.053Z,40.20
2019-04-10T13:30:18.738Z,39.05
2019-04-10T13:32:47.966Z,41.48
2019-04-10T13:35:17.717Z,40.70
2019-04-10T13:37:46.935Z,40.50
2019-04-10T13:40:15.941Z,41.00
2019-04-10T13:42:45.397Z,40.83
2019-04-10T13:45:17.475Z,40.33
2019-04-10T13:47:47.072Z,41.28
2019-04-10T13:50:17.146Z,40.80
2019-04-10T13:52:54.118Z,39.80
2019-04-10T13:55:22.924Z,40.15
2019-04-10T13:57:52.908Z,40.23
2019-04-10T14:00:40.460Z,41.18
2019-04-10T14:03:10.131Z,41.58
2019-04-10T14:05:39.132Z,41.50
2019-04-10T14:08:08.494Z,41.65
2019-04-10T14:10:40.844Z,43.10
2019-04-10T14:13:07.817Z,41.40
2019-04-10T14:15:36.561Z,42.00
2019-04-10T14:18:06.317Z,42.83
2019-04-10T14:20:35.431Z,43.17
2019-04-10T14:23:18.564Z,41.75
2019-04-10T14:25:49.795Z,44.05
2019-04-10T14:28:21.882Z,42.90
2019-04-10T14:30:51.610Z,42.62
2019-04-10T14:33:21.316Z,44.60
2019-04-10T14:35:50.124Z,45.37
2019-04-10T14:38:19.034Z,43.92
2019-04-10T14:40:49.191Z,44.80
2019-04-10T14:43:18.731Z,44.80
2019-04-10T14:45:48.029Z,45.40
2019-04-10T14:48:18.797Z,46.28
2019-04-10T14:50:47.713Z,45.80
2019-04-10T14:53:17.248Z,45.75
2019-04-10T14:56:06.815Z,46.02
2019-04-10T14:58:36.861Z,46.55
2019-04-10T15:01:08.178Z,43.65
2019-04-10T15:03:36.641Z,45.45
2019-04-10T15:06:07.032Z,46.05
2019-04-10T15:08:35.898Z,44.75
2019-04-10T15:11:04.677Z,45.20
2019-04-10T15:13:33.945Z,46.95
2019-04-10T15:16:03.036Z,44.83
2019-04-10T15:18:33.026Z,46.33
2019-04-10T15:21:02.805Z,45.73
2019-04-10T15:23:31.788Z,47.27
2019-04-10T15:26:01.772Z,48.78
2019-04-10T15:28:31.745Z,47.53
2019-04-10T15:31:01.399Z,47.40
2019-04-10T15:33:30.232Z,48.92
2019-04-10T15:35:59.749Z,48.37
2019-04-10T15:38:28.724Z,47.90
2019-04-10T15:40:57.467Z,50.03
2019-04-10T15:43:27.936Z,47.85
2019-04-10T15:45:56.903Z,49.08
2019-04-10T15:48:25.709Z,48.00
2019-04-10T15:50:54.476Z,49.17
2019-04-10T15:53:24.334Z,49.93
2019-04-10T15:55:54.185Z,50.75
2019-04-10T15:58:23.521Z,49.23
2019-04-10T16:00:52.410Z,50.92
2019-04-10T16:03:21.849Z,49.30
2019-04-10T16:05:50.689Z,49.65
2019-04-10T16:08:20.519Z,49.73
2019-04-10T16:10:57.254Z,48.90
2019-04-10T16:13:28.204Z,52.17
2019-04-10T16:15:58.918Z,51.73
2019-04-10T16:18:30.455Z,52.08
2019-04-10T16:20:59.990Z,52.60
2019-04-10T16:23:40.047Z,50.95
2019-04-10T16:26:09.717Z,51.83
2019-04-10T16:28:39.632Z,53.40
2019-04-10T16:31:08.510Z,54.33
2019-04-10T16:33:37.449Z,53.63
2019-04-10T16:36:06.217Z,53.98
2019-04-10T16:38:35.092Z,52.93
2019-04-10T16:41:04.709Z,56.37
2019-04-10T16:43:33.591Z,53.93
2019-04-10T16:46:02.859Z,56.63
2019-04-10T16:48:31.842Z,58.05
2019-04-10T16:51:01.643Z,58.28
2019-04-10T16:53:31.670Z,57.63
2019-04-10T16:56:01.037Z,58.60
2019-04-10T16:58:29.873Z,57.57
2019-04-10T17:00:58.717Z,58.80
2019-04-10T17:03:27.600Z,58.87
2019-04-10T17:05:57.625Z,60.40
2019-04-10T17:08:26.446Z,60.05
2019-04-10T17:10:55.220Z,60.12
2019-04-10T17:13:26.620Z,59.95
2019-04-10T17:15:57.611Z,63.25
2019-04-10T17:18:26.174Z,64.17
2019-04-10T17:20:55.548Z,57.83
2019-04-10T17:23:24.789Z,59.33
2019-04-10T17:25:54.868Z,59.20
2019-04-10T17:28:44.849Z,60.58
2019-04-10T17:31:14.430Z,59.65
2019-04-10T17:33:43.927Z,63.68
2019-04-10T17:36:16.766Z,62.33
2019-04-10T17:38:48.966Z,60.43
2019-04-10T17:41:17.865Z,58.28
2019-04-10T17:43:47.473Z,60.28
2019-04-10T17:46:17.348Z,63.52
2019-04-10T17:48:46.488Z,60.23
2019-04-10T17:51:15.381Z,60.23
2019-04-10T17:53:45.293Z,60.92
2019-04-10T17:56:14.271Z,64.58
2019-04-10T17:58:45.615Z,62.35
2019-04-10T18:01:20.937Z,62.78
2019-04-10T18:03:56.626Z,62.63
2019-04-10T18:06:23.454Z,62.53
2019-04-10T18:08:53.465Z,64.40
2019-04-10T18:11:22.437Z,66.20
2019-04-10T18:13:51.596Z,70.30
2019-04-10T18:16:22.266Z,64.22
2019-04-10T18:18:51.752Z,65.42
2019-04-10T18:21:22.410Z,65.32
2019-04-10T18:23:51.546Z,66.97
2019-04-10T18:26:21.072Z,65.27
2019-04-10T18:28:50.093Z,65.33
2019-04-10T18:31:18.835Z,65.30
2019-04-10T18:33:48.954Z,67.85
2019-04-10T18:36:17.853Z,69.00
2019-04-10T18:38:49.919Z,66.93
2019-04-10T18:41:24.829Z,67.08
2019-04-10T18:43:56.370Z,69.55
2019-04-10T18:46:29.497Z,68.12
2019-04-10T18:48:59.664Z,67.17
2019-04-10T18:51:29.855Z,65.28
2019-04-10T18:53:59.681Z,67.50
2019-04-10T18:56:31.328Z,67.35
2019-04-10T18:59:10.620Z,66.72
2019-04-10T19:01:47.369Z,69.10
2019-04-10T19:04:27.362Z,64.77
2019-04-10T19:07:00.880Z,62.33
2019-04-10T19:09:32.487Z,64.67
2019-04-10T19:12:04.307Z,65.43
2019-04-10T19:14:35.024Z,68.45
2019-04-10T19:17:02.714Z,64.62
2019-04-10T19:19:32.489Z,65.97
2019-04-10T19:22:02.075Z,66.82
2019-04-10T19:24:32.376Z,68.17
2019-04-10T19:27:02.123Z,68.17
2019-04-10T19:29:31.820Z,68.20
2019-04-10T19:32:02.217Z,64.40
2019-04-10T19:34:32.139Z,66.53
2019-04-10T19:37:00.950Z,61.63
2019-04-10T19:39:30.001Z,63.17
2019-04-10T19:41:59.205Z,61.42
2019-04-10T19:44:28.956Z,61.05
2019-04-10T19:46:57.906Z,64.27
2019-04-10T19:49:26.664Z,63.45
2019-04-10T19:51:56.040Z,64.22
2019-04-10T19:54:26.079Z,61.15
2019-04-10T19:56:55.094Z,63.28
2019-04-10T19:59:24.917Z,62.40
2019-04-10T20:01:54.775Z,63.10
2019-04-10T20:04:24.161Z,62.65
2019-04-10T20:06:57.480Z,63.00
2019-04-10T20:09:26.394Z,62.85
2019-04-10T20:11:56.984Z,64.20
2019-04-10T20:14:25.605Z,65.80
2019-04-10T20:16:55.471Z,65.15
2019-04-10T20:19:24.630Z,65.37
2019-04-10T20:21:54.540Z,67.60
2019-04-10T20:24:23.382Z,63.78
2019-04-10T20:26:52.142Z,68.17
2019-04-10T20:29:21.219Z,68.90
2019-04-10T20:31:51.622Z,68.47
2019-04-10T20:34:21.228Z,68.15
2019-04-10T20:36:50.121Z,68.67
2019-04-10T20:39:18.983Z,69.27
2019-04-10T20:41:52.355Z,70.52
2019-04-10T20:44:18.756Z,69.95
2019-04-10T20:46:48.572Z,71.90
2019-04-10T20:49:18.415Z,69.07
2019-04-10T20:51:47.710Z,70.47
2019-04-10T20:54:17.556Z,71.15
2019-04-10T20:56:46.517Z,71.85
2019-04-10T20:59:15.512Z,70.47
2019-04-10T21:01:44.908Z,73.90
2019-04-10T21:04:17.064Z,71.35
2019-04-10T21:06:46.070Z,70.75
2019-04-10T21:09:15.171Z,69.17
2019-04-10T21:11:57.200Z,68.45
2019-04-10T21:14:15.406Z,68.57
2019-04-10T21:16:44.384Z,69.83
2019-04-10T21:19:13.337Z,70.15
2019-04-10T21:21:43.334Z,69.42
2019-04-10T21:24:13.285Z,70.20
2019-04-10T21:26:42.214Z,68.92
2019-04-10T21:29:12.830Z,70.03
2019-04-10T21:31:48.988Z,72.27
2019-04-10T21:34:19.749Z,69.55
2019-04-10T21:36:48.995Z,71.90
2019-04-10T21:39:18.999Z,71.12
2019-04-10T21:41:48.820Z,70.57
2019-04-10T21:44:18.290Z,69.05
2019-04-10T21:46:47.149Z,72.77
2019-04-10T21:49:15.925Z,68.80
2019-04-10T21:51:44.852Z,73.02
2019-04-10T21:54:14.110Z,70.67
2019-04-10T21:56:43.089Z,68.70
2019-04-10T21:59:12.905Z,69.10
2019-04-10T22:01:42.348Z,70.10
2019-04-10T22:04:11.368Z,71.45
2019-04-10T22:06:43.033Z,72.27
2019-04-10T22:09:14.556Z,73.40
2019-04-10T22:11:45.611Z,74.53
2019-04-10T22:14:15.063Z,72.55
2019-04-10T22:16:44.325Z,71.85
2019-04-10T22:19:14.379Z,71.17
2019-04-10T22:21:44.050Z,69.20
2019-04-10T22:24:13.643Z,70.78
2019-04-10T22:26:42.562Z,70.50
2019-04-10T22:29:12.183Z,70.03
2019-04-10T22:31:41.633Z,72.00
2019-04-10T22:34:11.673Z,66.30
2019-04-10T22:36:41.562Z,70.20
2019-04-10T22:39:12.277Z,71.12
2019-04-10T22:41:42.781Z,68.67
2019-04-10T22:44:11.746Z,67.50
2019-04-10T22:46:40.573Z,66.73
2019-04-10T22:49:10.328Z,67.40
2019-04-10T22:51:39.800Z,68.37
2019-04-10T22:54:08.744Z,67.03
2019-04-10T22:56:37.792Z,67.80
2019-04-10T22:59:06.719Z,64.67
2019-04-10T23:01:35.524Z,65.90
2019-04-10T23:04:04.364Z,66.85
2019-04-10T23:06:33.317Z,65.87
2019-04-10T23:09:02.180Z,67.40
2019-04-10T23:11:37.330Z,66.60
2019-04-10T23:14:02.521Z,63.60
2019-04-10T23:16:32.396Z,64.50
2019-04-10T23:19:01.582Z,62.53
2019-04-10T23:21:30.804Z,63.30
2019-04-10T23:23:59.636Z,61.40
2019-04-10T23:26:29.148Z,62.95
2019-04-10T23:28:58.073Z,62.73
2019-04-10T23:31:27.875Z,59.67
2019-04-10T23:33:56.740Z,61.17
2019-04-10T23:36:26.406Z,57.93
2019-04-10T23:38:55.548Z,60.73
2019-04-10T23:41:25.442Z,60.12
2019-04-10T23:43:54.404Z,59.38
2019-04-10T23:46:23.204Z,61.18
2019-04-10T23:48:52.930Z,61.05
2019-04-10T23:51:23.073Z,59.60
2019-04-10T23:53:52.957Z,59.77
2019-04-10T23:56:21.921Z,60.67
2019-04-10T23:58:50.831Z,58.68
